sensor_id;sensor_type;location;lat;lon;timestamp;P1;durP1;ratioP1;P2;durP2;ratioP2
66628;SDS011;53532;53.084;6.352;2023-04-01T00:01:07;14.10;;;9.35;;
66628;SDS011;53532;53.084;6.352;2023-04-01T00:03:33;14.13;;;9.80;;
66628;SDS011;53532;53.084;6.352;2023-04-01T00:06:00;14.40;;;9.35;;
66628;SDS011;53532;53.084;6.352;2023-04-01T00:08:27;13.63;;;9.18;;
66628;SDS011;53532;53.084;6.352;2023-04-01T00:10:53;15.15;;;9.63;;
66628;SDS011;53532;53.084;6.352;2023-04-01T00:13:20;16.23;;;9.52;;
66628;SDS011;53532;53.084;6.352;2023-04-01T00:15:46;15.02;;;10.10;;
66628;SDS011;53532;53.084;6.352;2023-04-01T00:18:14;14.45;;;9.52;;
66628;SDS011;53532;53.084;6.352;2023-04-01T00:20:42;14.00;;;9.45;;
66628;SDS011;53532;53.084;6.352;2023-04-01T00:23:09;13.82;;;9.15;;
66628;SDS011;53532;53.084;6.352;2023-04-01T00:25:35;13.20;;;8.85;;
66628;SDS011;53532;53.084;6.352;2023-04-01T00:28:01;13.95;;;9.48;;
66628;SDS011;53532;53.084;6.352;2023-04-01T00:30:27;14.20;;;9.57;;
66628;SDS011;53532;53.084;6.352;2023-04-01T00:32:54;13.48;;;9.32;;
66628;SDS011;53532;53.084;6.352;2023-04-01T00:35:21;13.35;;;9.27;;
66628;SDS011;53532;53.084;6.352;2023-04-01T00:37:47;14.25;;;9.63;;
66628;SDS011;53532;53.084;6.352;2023-04-01T00:40:21;14.13;;;9.32;;
66628;SDS011;53532;53.084;6.352;2023-04-01T00:42:48;14.00;;;8.90;;
66628;SDS011;53532;53.084;6.352;2023-04-01T00:45:25;13.60;;;8.95;;
66628;SDS011;53532;53.084;6.352;2023-04-01T00:47:52;16.25;;;9.27;;
66628;SDS011;53532;53.084;6.352;2023-04-01T00:50:18;15.25;;;9.90;;
66628;SDS011;53532;53.084;6.352;2023-04-01T00:52:46;15.75;;;9.50;;
66628;SDS011;53532;53.084;6.352;2023-04-01T00:55:12;15.27;;;9.52;;
66628;SDS011;53532;53.084;6.352;2023-04-01T00:57:39;15.25;;;10.32;;
66628;SDS011;53532;53.084;6.352;2023-04-01T01:00:09;15.75;;;10.38;;
66628;SDS011;53532;53.084;6.352;2023-04-01T01:02:36;16.05;;;9.75;;
66628;SDS011;53532;53.084;6.352;2023-04-01T01:05:02;16.10;;;9.90;;
66628;SDS011;53532;53.084;6.352;2023-04-01T01:07:30;14.52;;;9.65;;
66628;SDS011;53532;53.084;6.352;2023-04-01T01:10:03;14.85;;;10.50;;
66628;SDS011;53532;53.084;6.352;2023-04-01T01:12:34;15.88;;;10.90;;
66628;SDS011;53532;53.084;6.352;2023-04-01T01:15:02;14.25;;;10.02;;
66628;SDS011;53532;53.084;6.352;2023-04-01T01:17:35;14.75;;;10.00;;
66628;SDS011;53532;53.084;6.352;2023-04-01T01:20:27;15.00;;;10.15;;
66628;SDS011;53532;53.084;6.352;2023-04-01T01:23:03;16.50;;;10.30;;
66628;SDS011;53532;53.084;6.352;2023-04-01T01:25:34;17.10;;;10.55;;
66628;SDS011;53532;53.084;6.352;2023-04-01T01:28:11;15.65;;;10.13;;
66628;SDS011;53532;53.084;6.352;2023-04-01T01:30:43;15.18;;;10.23;;
66628;SDS011;53532;53.084;6.352;2023-04-01T01:33:18;15.27;;;10.05;;
66628;SDS011;53532;53.084;6.352;2023-04-01T01:35:48;14.82;;;10.18;;
66628;SDS011;53532;53.084;6.352;2023-04-01T01:38:16;12.90;;;9.25;;
66628;SDS011;53532;53.084;6.352;2023-04-01T01:40:44;14.88;;;10.05;;
66628;SDS011;53532;53.084;6.352;2023-04-01T01:43:12;14.23;;;8.95;;
66628;SDS011;53532;53.084;6.352;2023-04-01T01:45:42;13.60;;;9.32;;
66628;SDS011;53532;53.084;6.352;2023-04-01T01:48:09;15.38;;;8.95;;
66628;SDS011;53532;53.084;6.352;2023-04-01T01:50:36;15.13;;;10.13;;
66628;SDS011;53532;53.084;6.352;2023-04-01T01:53:06;15.30;;;9.65;;
66628;SDS011;53532;53.084;6.352;2023-04-01T01:55:33;14.15;;;9.35;;
66628;SDS011;53532;53.084;6.352;2023-04-01T01:58:00;15.98;;;10.27;;
66628;SDS011;53532;53.084;6.352;2023-04-01T02:00:28;14.10;;;9.55;;
66628;SDS011;53532;53.084;6.352;2023-04-01T02:02:54;13.82;;;9.50;;
66628;SDS011;53532;53.084;6.352;2023-04-01T02:05:22;14.63;;;9.35;;
66628;SDS011;53532;53.084;6.352;2023-04-01T02:07:50;14.98;;;9.90;;
66628;SDS011;53532;53.084;6.352;2023-04-01T02:10:20;14.98;;;10.10;;
66628;SDS011;53532;53.084;6.352;2023-04-01T02:12:48;15.57;;;10.20;;
66628;SDS011;53532;53.084;6.352;2023-04-01T02:15:15;15.45;;;10.38;;
66628;SDS011;53532;53.084;6.352;2023-04-01T02:17:43;14.93;;;9.65;;
66628;SDS011;53532;53.084;6.352;2023-04-01T02:20:11;16.92;;;10.27;;
66628;SDS011;53532;53.084;6.352;2023-04-01T02:22:41;16.88;;;10.60;;
66628;SDS011;53532;53.084;6.352;2023-04-01T02:25:10;17.08;;;10.60;;
66628;SDS011;53532;53.084;6.352;2023-04-01T02:27:38;15.35;;;10.55;;
66628;SDS011;53532;53.084;6.352;2023-04-01T02:30:05;17.30;;;10.95;;
66628;SDS011;53532;53.084;6.352;2023-04-01T02:32:32;18.40;;;11.63;;
66628;SDS011;53532;53.084;6.352;2023-04-01T02:34:59;22.05;;;11.07;;
66628;SDS011;53532;53.084;6.352;2023-04-01T02:37:28;17.08;;;10.95;;
66628;SDS011;53532;53.084;6.352;2023-04-01T02:39:54;16.50;;;10.88;;
66628;SDS011;53532;53.084;6.352;2023-04-01T02:42:24;16.70;;;10.30;;
66628;SDS011;53532;53.084;6.352;2023-04-01T02:44:52;19.45;;;11.32;;
66628;SDS011;53532;53.084;6.352;2023-04-01T02:47:18;19.65;;;11.07;;
66628;SDS011;53532;53.084;6.352;2023-04-01T02:49:44;18.98;;;10.32;;
66628;SDS011;53532;53.084;6.352;2023-04-01T02:52:10;17.08;;;10.40;;
66628;SDS011;53532;53.084;6.352;2023-04-01T02:54:37;17.83;;;10.20;;
66628;SDS011;53532;53.084;6.352;2023-04-01T02:57:03;17.73;;;10.00;;
66628;SDS011;53532;53.084;6.352;2023-04-01T02:59:29;16.55;;;10.23;;
66628;SDS011;53532;53.084;6.352;2023-04-01T03:01:56;18.80;;;10.45;;
66628;SDS011;53532;53.084;6.352;2023-04-01T03:04:22;18.77;;;11.07;;
66628;SDS011;53532;53.084;6.352;2023-04-01T03:06:49;19.15;;;10.93;;
66628;SDS011;53532;53.084;6.352;2023-04-01T03:09:16;19.88;;;11.05;;
66628;SDS011;53532;53.084;6.352;2023-04-01T03:11:42;17.73;;;10.93;;
66628;SDS011;53532;53.084;6.352;2023-04-01T03:14:08;19.60;;;11.35;;
66628;SDS011;53532;53.084;6.352;2023-04-01T03:16:34;20.10;;;11.60;;
66628;SDS011;53532;53.084;6.352;2023-04-01T03:19:02;20.60;;;11.10;;
66628;SDS011;53532;53.084;6.352;2023-04-01T03:21:28;20.33;;;12.05;;
66628;SDS011;53532;53.084;6.352;2023-04-01T03:23:54;22.83;;;12.15;;
66628;SDS011;53532;53.084;6.352;2023-04-01T03:26:20;23.13;;;12.82;;
66628;SDS011;53532;53.084;6.352;2023-04-01T03:28:47;19.52;;;11.95;;
66628;SDS011;53532;53.084;6.352;2023-04-01T03:31:14;19.90;;;11.60;;
66628;SDS011;53532;53.084;6.352;2023-04-01T03:33:41;21.05;;;11.52;;
66628;SDS011;53532;53.084;6.352;2023-04-01T03:36:08;20.55;;;11.10;;
66628;SDS011;53532;53.084;6.352;2023-04-01T03:38:37;24.13;;;12.25;;
66628;SDS011;53532;53.084;6.352;2023-04-01T03:41:03;21.20;;;12.02;;
66628;SDS011;53532;53.084;6.352;2023-04-01T03:43:29;20.67;;;11.88;;
66628;SDS011;53532;53.084;6.352;2023-04-01T03:45:55;23.60;;;12.93;;
66628;SDS011;53532;53.084;6.352;2023-04-01T03:48:24;23.70;;;12.73;;
66628;SDS011;53532;53.084;6.352;2023-04-01T03:50:51;22.20;;;12.68;;
66628;SDS011;53532;53.084;6.352;2023-04-01T03:53:18;22.73;;;13.32;;
66628;SDS011;53532;53.084;6.352;2023-04-01T03:55:44;21.50;;;12.68;;
66628;SDS011;53532;53.084;6.352;2023-04-01T03:58:11;26.58;;;14.23;;
66628;SDS011;53532;53.084;6.352;2023-04-01T04:00:37;22.05;;;13.10;;
66628;SDS011;53532;53.084;6.352;2023-04-01T04:03:05;23.67;;;13.77;;
66628;SDS011;53532;53.084;6.352;2023-04-01T04:05:31;22.88;;;13.13;;
66628;SDS011;53532;53.084;6.352;2023-04-01T04:07:57;25.55;;;14.13;;
66628;SDS011;53532;53.084;6.352;2023-04-01T04:10:25;23.02;;;13.65;;
66628;SDS011;53532;53.084;6.352;2023-04-01T04:12:51;25.33;;;14.40;;
66628;SDS011;53532;53.084;6.352;2023-04-01T04:15:17;23.38;;;14.63;;
66628;SDS011;53532;53.084;6.352;2023-04-01T04:17:44;22.65;;;13.85;;
66628;SDS011;53532;53.084;6.352;2023-04-01T04:20:10;24.02;;;14.38;;
66628;SDS011;53532;53.084;6.352;2023-04-01T04:22:36;23.38;;;14.10;;
66628;SDS011;53532;53.084;6.352;2023-04-01T04:25:02;23.25;;;14.48;;
66628;SDS011;53532;53.084;6.352;2023-04-01T04:27:30;24.10;;;13.75;;
66628;SDS011;53532;53.084;6.352;2023-04-01T04:29:56;23.80;;;13.50;;
66628;SDS011;53532;53.084;6.352;2023-04-01T04:32:22;22.48;;;13.73;;
66628;SDS011;53532;53.084;6.352;2023-04-01T04:34:48;22.92;;;13.65;;
66628;SDS011;53532;53.084;6.352;2023-04-01T04:37:14;26.02;;;14.57;;
66628;SDS011;53532;53.084;6.352;2023-04-01T04:39:40;29.50;;;15.65;;
66628;SDS011;53532;53.084;6.352;2023-04-01T04:42:07;29.30;;;15.40;;
66628;SDS011;53532;53.084;6.352;2023-04-01T04:44:34;25.52;;;14.20;;
66628;SDS011;53532;53.084;6.352;2023-04-01T04:47:00;27.83;;;14.52;;
66628;SDS011;53532;53.084;6.352;2023-04-01T04:49:27;26.95;;;15.25;;
66628;SDS011;53532;53.084;6.352;2023-04-01T04:51:53;25.58;;;15.02;;
66628;SDS011;53532;53.084;6.352;2023-04-01T04:54:19;28.23;;;15.70;;
66628;SDS011;53532;53.084;6.352;2023-04-01T04:56:45;36.70;;;16.67;;
66628;SDS011;53532;53.084;6.352;2023-04-01T04:59:11;29.83;;;14.95;;
66628;SDS011;53532;53.084;6.352;2023-04-01T05:01:39;26.33;;;15.00;;
66628;SDS011;53532;53.084;6.352;2023-04-01T05:04:05;32.97;;;15.95;;
66628;SDS011;53532;53.084;6.352;2023-04-01T05:06:31;33.20;;;15.20;;
66628;SDS011;53532;53.084;6.352;2023-04-01T05:08:57;28.83;;;14.68;;
66628;SDS011;53532;53.084;6.352;2023-04-01T05:11:24;32.33;;;15.88;;
66628;SDS011;53532;53.084;6.352;2023-04-01T05:13:51;44.92;;;16.73;;
66628;SDS011;53532;53.084;6.352;2023-04-01T05:16:18;35.58;;;16.10;;
66628;SDS011;53532;53.084;6.352;2023-04-01T05:18:45;28.70;;;15.05;;
66628;SDS011;53532;53.084;6.352;2023-04-01T05:21:12;36.20;;;16.95;;
66628;SDS011;53532;53.084;6.352;2023-04-01T05:23:39;38.78;;;17.08;;
66628;SDS011;53532;53.084;6.352;2023-04-01T05:26:05;35.80;;;16.08;;
66628;SDS011;53532;53.084;6.352;2023-04-01T05:28:31;34.55;;;16.02;;
66628;SDS011;53532;53.084;6.352;2023-04-01T05:30:58;37.50;;;16.13;;
66628;SDS011;53532;53.084;6.352;2023-04-01T05:33:25;41.10;;;17.05;;
66628;SDS011;53532;53.084;6.352;2023-04-01T05:35:53;34.10;;;15.50;;
66628;SDS011;53532;53.084;6.352;2023-04-01T05:38:19;39.80;;;17.00;;
66628;SDS011;53532;53.084;6.352;2023-04-01T05:40:45;43.63;;;16.02;;
66628;SDS011;53532;53.084;6.352;2023-04-01T05:43:11;31.77;;;15.10;;
66628;SDS011;53532;53.084;6.352;2023-04-01T05:45:38;36.42;;;14.98;;
66628;SDS011;53532;53.084;6.352;2023-04-01T05:48:04;29.85;;;13.93;;
66628;SDS011;53532;53.084;6.352;2023-04-01T05:50:30;30.38;;;13.63;;
66628;SDS011;53532;53.084;6.352;2023-04-01T05:52:58;32.33;;;14.70;;
66628;SDS011;53532;53.084;6.352;2023-04-01T05:55:24;27.30;;;12.75;;
66628;SDS011;53532;53.084;6.352;2023-04-01T05:57:50;29.67;;;12.95;;
66628;SDS011;53532;53.084;6.352;2023-04-01T06:00:16;23.83;;;11.95;;
66628;SDS011;53532;53.084;6.352;2023-04-01T06:02:44;32.60;;;12.13;;
66628;SDS011;53532;53.084;6.352;2023-04-01T06:05:13;20.48;;;10.30;;
66628;SDS011;53532;53.084;6.352;2023-04-01T06:07:40;20.85;;;9.85;;
66628;SDS011;53532;53.084;6.352;2023-04-01T06:10:11;17.40;;;8.90;;
66628;SDS011;53532;53.084;6.352;2023-04-01T06:12:40;17.27;;;8.27;;
66628;SDS011;53532;53.084;6.352;2023-04-01T06:15:13;14.90;;;7.65;;
66628;SDS011;53532;53.084;6.352;2023-04-01T06:17:51;11.82;;;5.90;;
66628;SDS011;53532;53.084;6.352;2023-04-01T06:20:20;12.60;;;5.30;;
66628;SDS011;53532;53.084;6.352;2023-04-01T06:23:01;13.60;;;5.70;;
66628;SDS011;53532;53.084;6.352;2023-04-01T06:25:38;13.25;;;5.35;;
66628;SDS011;53532;53.084;6.352;2023-04-01T06:30:52;10.32;;;5.45;;
66628;SDS011;53532;53.084;6.352;2023-04-01T06:33:28;14.95;;;6.57;;
66628;SDS011;53532;53.084;6.352;2023-04-01T06:36:06;13.25;;;6.40;;
66628;SDS011;53532;53.084;6.352;2023-04-01T06:38:39;13.38;;;5.72;;
66628;SDS011;53532;53.084;6.352;2023-04-01T06:41:13;13.77;;;5.97;;
66628;SDS011;53532;53.084;6.352;2023-04-01T06:43:45;13.68;;;6.40;;
66628;SDS011;53532;53.084;6.352;2023-04-01T06:46:15;14.18;;;6.90;;
66628;SDS011;53532;53.084;6.352;2023-04-01T06:48:55;16.60;;;9.03;;
66628;SDS011;53532;53.084;6.352;2023-04-01T06:51:24;16.80;;;9.20;;
66628;SDS011;53532;53.084;6.352;2023-04-01T06:53:54;15.07;;;8.52;;
66628;SDS011;53532;53.084;6.352;2023-04-01T06:56:24;17.13;;;9.27;;
66628;SDS011;53532;53.084;6.352;2023-04-01T06:58:52;16.05;;;9.20;;
66628;SDS011;53532;53.084;6.352;2023-04-01T07:01:20;16.55;;;10.30;;
66628;SDS011;53532;53.084;6.352;2023-04-01T07:03:49;18.75;;;10.52;;
66628;SDS011;53532;53.084;6.352;2023-04-01T07:06:21;16.30;;;10.57;;
66628;SDS011;53532;53.084;6.352;2023-04-01T07:08:49;17.27;;;10.63;;
66628;SDS011;53532;53.084;6.352;2023-04-01T07:11:19;18.40;;;11.63;;
66628;SDS011;53532;53.084;6.352;2023-04-01T07:13:49;18.88;;;12.50;;
66628;SDS011;53532;53.084;6.352;2023-04-01T07:16:19;15.85;;;10.75;;
66628;SDS011;53532;53.084;6.352;2023-04-01T07:18:47;17.20;;;11.75;;
66628;SDS011;53532;53.084;6.352;2023-04-01T07:21:19;17.63;;;12.50;;
66628;SDS011;53532;53.084;6.352;2023-04-01T07:23:46;20.10;;;13.52;;
66628;SDS011;53532;53.084;6.352;2023-04-01T07:26:14;21.33;;;14.20;;
66628;SDS011;53532;53.084;6.352;2023-04-01T07:28:41;20.45;;;14.07;;
66628;SDS011;53532;53.084;6.352;2023-04-01T07:31:13;19.17;;;13.77;;
66628;SDS011;53532;53.084;6.352;2023-04-01T07:33:43;22.48;;;15.55;;
66628;SDS011;53532;53.084;6.352;2023-04-01T07:36:13;23.27;;;16.23;;
66628;SDS011;53532;53.084;6.352;2023-04-01T07:38:42;24.58;;;16.65;;
66628;SDS011;53532;53.084;6.352;2023-04-01T07:41:15;25.42;;;16.92;;
66628;SDS011;53532;53.084;6.352;2023-04-01T07:43:47;24.33;;;16.92;;
66628;SDS011;53532;53.084;6.352;2023-04-01T07:46:25;23.55;;;15.95;;
66628;SDS011;53532;53.084;6.352;2023-04-01T07:48:56;25.95;;;17.10;;
66628;SDS011;53532;53.084;6.352;2023-04-01T07:51:27;24.95;;;16.60;;
66628;SDS011;53532;53.084;6.352;2023-04-01T07:53:57;24.58;;;16.13;;
66628;SDS011;53532;53.084;6.352;2023-04-01T07:56:25;24.75;;;16.35;;
66628;SDS011;53532;53.084;6.352;2023-04-01T07:58:56;27.17;;;17.42;;
66628;SDS011;53532;53.084;6.352;2023-04-01T08:01:30;26.13;;;16.90;;
66628;SDS011;53532;53.084;6.352;2023-04-01T08:04:19;24.90;;;18.00;;
66628;SDS011;53532;53.084;6.352;2023-04-01T08:06:50;27.58;;;18.25;;
66628;SDS011;53532;53.084;6.352;2023-04-01T08:09:21;27.17;;;17.27;;
66628;SDS011;53532;53.084;6.352;2023-04-01T08:11:52;27.10;;;17.58;;
66628;SDS011;53532;53.084;6.352;2023-04-01T08:14:25;29.77;;;18.23;;
66628;SDS011;53532;53.084;6.352;2023-04-01T08:16:57;27.67;;;17.45;;
66628;SDS011;53532;53.084;6.352;2023-04-01T08:19:30;29.23;;;17.92;;
66628;SDS011;53532;53.084;6.352;2023-04-01T08:21:57;28.45;;;17.67;;
66628;SDS011;53532;53.084;6.352;2023-04-01T08:24:25;28.90;;;16.88;;
66628;SDS011;53532;53.084;6.352;2023-04-01T08:26:53;27.80;;;17.40;;
66628;SDS011;53532;53.084;6.352;2023-04-01T08:29:21;27.35;;;18.08;;
66628;SDS011;53532;53.084;6.352;2023-04-01T08:31:48;26.55;;;18.02;;
66628;SDS011;53532;53.084;6.352;2023-04-01T08:34:20;28.35;;;17.60;;
66628;SDS011;53532;53.084;6.352;2023-04-01T08:36:47;30.00;;;17.48;;
66628;SDS011;53532;53.084;6.352;2023-04-01T08:39:16;28.58;;;17.92;;
66628;SDS011;53532;53.084;6.352;2023-04-01T08:41:56;29.17;;;18.08;;
66628;SDS011;53532;53.084;6.352;2023-04-01T08:44:34;26.38;;;17.50;;
66628;SDS011;53532;53.084;6.352;2023-04-01T08:47:09;26.98;;;16.45;;
66628;SDS011;53532;53.084;6.352;2023-04-01T08:52:36;25.25;;;16.50;;
66628;SDS011;53532;53.084;6.352;2023-04-01T08:55:04;25.85;;;16.23;;
66628;SDS011;53532;53.084;6.352;2023-04-01T08:57:42;25.60;;;15.45;;
66628;SDS011;53532;53.084;6.352;2023-04-01T09:00:14;22.88;;;15.20;;
66628;SDS011;53532;53.084;6.352;2023-04-01T09:02:50;23.07;;;15.07;;
66628;SDS011;53532;53.084;6.352;2023-04-01T09:05:38;21.52;;;14.63;;
66628;SDS011;53532;53.084;6.352;2023-04-01T09:08:14;24.73;;;15.93;;
66628;SDS011;53532;53.084;6.352;2023-04-01T09:10:46;21.10;;;14.15;;
66628;SDS011;53532;53.084;6.352;2023-04-01T09:16:05;21.23;;;13.85;;
66628;SDS011;53532;53.084;6.352;2023-04-01T09:18:55;18.92;;;12.88;;
66628;SDS011;53532;53.084;6.352;2023-04-01T09:21:29;20.15;;;13.80;;
66628;SDS011;53532;53.084;6.352;2023-04-01T09:24:07;18.58;;;12.80;;
66628;SDS011;53532;53.084;6.352;2023-04-01T09:26:44;20.17;;;12.90;;
66628;SDS011;53532;53.084;6.352;2023-04-01T09:29:16;18.20;;;12.13;;
66628;SDS011;53532;53.084;6.352;2023-04-01T09:31:50;17.65;;;12.77;;
66628;SDS011;53532;53.084;6.352;2023-04-01T09:34:26;17.15;;;11.90;;
66628;SDS011;53532;53.084;6.352;2023-04-01T09:37:00;17.55;;;12.90;;
66628;SDS011;53532;53.084;6.352;2023-04-01T09:39:36;17.65;;;12.70;;
66628;SDS011;53532;53.084;6.352;2023-04-01T09:42:07;15.25;;;10.82;;
66628;SDS011;53532;53.084;6.352;2023-04-01T09:44:33;14.50;;;10.00;;
66628;SDS011;53532;53.084;6.352;2023-04-01T09:47:03;14.65;;;9.55;;
66628;SDS011;53532;53.084;6.352;2023-04-01T09:52:01;13.40;;;7.97;;
66628;SDS011;53532;53.084;6.352;2023-04-01T09:54:42;11.40;;;8.32;;
66628;SDS011;53532;53.084;6.352;2023-04-01T10:00:03;10.88;;;7.93;;
66628;SDS011;53532;53.084;6.352;2023-04-01T10:05:30;9.63;;;6.88;;
66628;SDS011;53532;53.084;6.352;2023-04-01T10:13:32;9.57;;;6.03;;
66628;SDS011;53532;53.084;6.352;2023-04-01T10:24:22;9.50;;;6.10;;
66628;SDS011;53532;53.084;6.352;2023-04-01T10:29:44;9.25;;;6.43;;
66628;SDS011;53532;53.084;6.352;2023-04-01T10:37:54;7.85;;;5.82;;
66628;SDS011;53532;53.084;6.352;2023-04-01T10:40:29;8.10;;;5.70;;
66628;SDS011;53532;53.084;6.352;2023-04-01T10:43:09;9.55;;;6.03;;
66628;SDS011;53532;53.084;6.352;2023-04-01T10:45:52;9.52;;;6.05;;
66628;SDS011;53532;53.084;6.352;2023-04-01T10:48:23;8.63;;;5.38;;
66628;SDS011;53532;53.084;6.352;2023-04-01T10:53:49;7.47;;;5.45;;
66628;SDS011;53532;53.084;6.352;2023-04-01T10:59:11;6.30;;;4.53;;
66628;SDS011;53532;53.084;6.352;2023-04-01T11:04:31;7.47;;;4.78;;
66628;SDS011;53532;53.084;6.352;2023-04-01T11:07:16;6.72;;;4.38;;
66628;SDS011;53532;53.084;6.352;2023-04-01T11:21:04;5.63;;;3.60;;
66628;SDS011;53532;53.084;6.352;2023-04-01T11:23:55;6.75;;;3.88;;
66628;SDS011;53532;53.084;6.352;2023-04-01T11:26:31;5.55;;;3.75;;
66628;SDS011;53532;53.084;6.352;2023-04-01T11:29:09;5.97;;;3.67;;
66628;SDS011;53532;53.084;6.352;2023-04-01T11:31:47;4.97;;;3.53;;
66628;SDS011;53532;53.084;6.352;2023-04-01T11:34:20;5.25;;;3.40;;
66628;SDS011;53532;53.084;6.352;2023-04-01T11:36:56;5.43;;;3.78;;
66628;SDS011;53532;53.084;6.352;2023-04-01T11:39:29;6.03;;;4.20;;
66628;SDS011;53532;53.084;6.352;2023-04-01T11:42:01;6.25;;;3.97;;
66628;SDS011;53532;53.084;6.352;2023-04-01T11:44:29;6.50;;;4.60;;
66628;SDS011;53532;53.084;6.352;2023-04-01T11:47:01;7.20;;;4.40;;
66628;SDS011;53532;53.084;6.352;2023-04-01T11:52:19;7.88;;;4.53;;
66628;SDS011;53532;53.084;6.352;2023-04-01T11:55:03;6.95;;;4.90;;
66628;SDS011;53532;53.084;6.352;2023-04-01T12:00:22;7.30;;;4.72;;
66628;SDS011;53532;53.084;6.352;2023-04-01T12:02:52;7.95;;;4.95;;
66628;SDS011;53532;53.084;6.352;2023-04-01T12:05:31;6.65;;;4.60;;
66628;SDS011;53532;53.084;6.352;2023-04-01T12:08:10;7.35;;;5.05;;
66628;SDS011;53532;53.084;6.352;2023-04-01T12:10:39;6.43;;;4.60;;
66628;SDS011;53532;53.084;6.352;2023-04-01T12:13:07;5.80;;;4.10;;
66628;SDS011;53532;53.084;6.352;2023-04-01T12:15:43;6.30;;;4.25;;
66628;SDS011;53532;53.084;6.352;2023-04-01T12:18:15;6.10;;;4.47;;
66628;SDS011;53532;53.084;6.352;2023-04-01T12:20:45;5.88;;;4.28;;
66628;SDS011;53532;53.084;6.352;2023-04-01T12:26:10;6.55;;;4.07;;
66628;SDS011;53532;53.084;6.352;2023-04-01T12:28:44;5.70;;;3.40;;
66628;SDS011;53532;53.084;6.352;2023-04-01T12:31:17;5.90;;;3.75;;
66628;SDS011;53532;53.084;6.352;2023-04-01T12:33:48;5.90;;;4.10;;
66628;SDS011;53532;53.084;6.352;2023-04-01T12:36:20;6.60;;;4.30;;
66628;SDS011;53532;53.084;6.352;2023-04-01T12:38:55;5.38;;;4.07;;
66628;SDS011;53532;53.084;6.352;2023-04-01T12:41:32;5.88;;;4.03;;
66628;SDS011;53532;53.084;6.352;2023-04-01T12:44:16;6.35;;;3.92;;
66628;SDS011;53532;53.084;6.352;2023-04-01T12:46:52;6.22;;;4.20;;
66628;SDS011;53532;53.084;6.352;2023-04-01T12:49:26;6.20;;;3.90;;
66628;SDS011;53532;53.084;6.352;2023-04-01T12:51:59;5.75;;;3.65;;
66628;SDS011;53532;53.084;6.352;2023-04-01T12:57:23;5.70;;;4.20;;
66628;SDS011;53532;53.084;6.352;2023-04-01T12:59:58;6.32;;;3.83;;
66628;SDS011;53532;53.084;6.352;2023-04-01T13:02:31;4.30;;;3.40;;
66628;SDS011;53532;53.084;6.352;2023-04-01T13:05:15;5.93;;;3.92;;
66628;SDS011;53532;53.084;6.352;2023-04-01T13:07:47;5.22;;;3.88;;
66628;SDS011;53532;53.084;6.352;2023-04-01T13:10:20;6.30;;;3.95;;
66628;SDS011;53532;53.084;6.352;2023-04-01T13:13:03;5.68;;;3.80;;
66628;SDS011;53532;53.084;6.352;2023-04-01T13:15:36;5.55;;;3.97;;
66628;SDS011;53532;53.084;6.352;2023-04-01T13:18:06;6.57;;;4.18;;
66628;SDS011;53532;53.084;6.352;2023-04-01T13:20:40;5.05;;;3.83;;
66628;SDS011;53532;53.084;6.352;2023-04-01T13:23:11;5.85;;;4.00;;
66628;SDS011;53532;53.084;6.352;2023-04-01T13:25:41;6.43;;;4.25;;
66628;SDS011;53532;53.084;6.352;2023-04-01T13:28:15;5.72;;;3.80;;
66628;SDS011;53532;53.084;6.352;2023-04-01T13:30:45;6.03;;;3.92;;
66628;SDS011;53532;53.084;6.352;2023-04-01T13:33:13;5.15;;;3.72;;
66628;SDS011;53532;53.084;6.352;2023-04-01T13:35:42;5.10;;;3.80;;
66628;SDS011;53532;53.084;6.352;2023-04-01T13:38:15;5.10;;;4.03;;
66628;SDS011;53532;53.084;6.352;2023-04-01T13:40:46;5.47;;;4.10;;
66628;SDS011;53532;53.084;6.352;2023-04-01T13:45:46;5.40;;;4.45;;
66628;SDS011;53532;53.084;6.352;2023-04-01T13:48:27;5.43;;;4.40;;
66628;SDS011;53532;53.084;6.352;2023-04-01T13:51:01;6.00;;;4.45;;
66628;SDS011;53532;53.084;6.352;2023-04-01T13:53:40;6.22;;;4.65;;
66628;SDS011;53532;53.084;6.352;2023-04-01T13:56:14;5.57;;;4.07;;
66628;SDS011;53532;53.084;6.352;2023-04-01T13:58:43;5.70;;;3.90;;
66628;SDS011;53532;53.084;6.352;2023-04-01T14:01:14;4.68;;;3.90;;
66628;SDS011;53532;53.084;6.352;2023-04-01T14:03:59;4.75;;;3.58;;
66628;SDS011;53532;53.084;6.352;2023-04-01T14:06:34;4.18;;;3.30;;
66628;SDS011;53532;53.084;6.352;2023-04-01T14:09:11;4.53;;;3.38;;
66628;SDS011;53532;53.084;6.352;2023-04-01T14:11:45;5.15;;;3.33;;
66628;SDS011;53532;53.084;6.352;2023-04-01T14:14:18;4.30;;;3.30;;
66628;SDS011;53532;53.084;6.352;2023-04-01T14:16:57;4.32;;;3.25;;
66628;SDS011;53532;53.084;6.352;2023-04-01T14:19:28;4.10;;;3.00;;
66628;SDS011;53532;53.084;6.352;2023-04-01T14:21:58;4.63;;;3.08;;
66628;SDS011;53532;53.084;6.352;2023-04-01T14:24:36;4.47;;;2.80;;
66628;SDS011;53532;53.084;6.352;2023-04-01T14:27:22;4.15;;;2.78;;
66628;SDS011;53532;53.084;6.352;2023-04-01T14:29:58;4.43;;;3.10;;
66628;SDS011;53532;53.084;6.352;2023-04-01T14:32:30;7.72;;;3.35;;
66628;SDS011;53532;53.084;6.352;2023-04-01T14:34:59;4.13;;;2.85;;
66628;SDS011;53532;53.084;6.352;2023-04-01T14:37:40;3.90;;;2.90;;
66628;SDS011;53532;53.084;6.352;2023-04-01T14:46:08;3.70;;;2.90;;
66628;SDS011;53532;53.084;6.352;2023-04-01T14:48:48;4.68;;;3.10;;
66628;SDS011;53532;53.084;6.352;2023-04-01T14:51:15;4.03;;;2.90;;
66628;SDS011;53532;53.084;6.352;2023-04-01T14:53:43;5.35;;;3.17;;
66628;SDS011;53532;53.084;6.352;2023-04-01T14:56:10;4.25;;;3.10;;
66628;SDS011;53532;53.084;6.352;2023-04-01T14:58:42;4.38;;;2.90;;
66628;SDS011;53532;53.084;6.352;2023-04-01T15:01:24;4.68;;;2.97;;
66628;SDS011;53532;53.084;6.352;2023-04-01T15:03:55;3.63;;;2.83;;
66628;SDS011;53532;53.084;6.352;2023-04-01T15:06:30;4.00;;;2.92;;
66628;SDS011;53532;53.084;6.352;2023-04-01T15:09:00;4.10;;;2.90;;
66628;SDS011;53532;53.084;6.352;2023-04-01T15:11:32;4.82;;;3.00;;
66628;SDS011;53532;53.084;6.352;2023-04-01T15:14:02;4.30;;;3.30;;
66628;SDS011;53532;53.084;6.352;2023-04-01T15:16:32;4.07;;;3.25;;
66628;SDS011;53532;53.084;6.352;2023-04-01T15:19:04;6.07;;;3.60;;
66628;SDS011;53532;53.084;6.352;2023-04-01T15:21:42;4.75;;;3.80;;
66628;SDS011;53532;53.084;6.352;2023-04-01T15:24:11;4.45;;;3.50;;
66628;SDS011;53532;53.084;6.352;2023-04-01T15:29:18;5.05;;;3.10;;
66628;SDS011;53532;53.084;6.352;2023-04-01T15:31:49;3.92;;;2.95;;
66628;SDS011;53532;53.084;6.352;2023-04-01T15:34:24;5.88;;;3.30;;
66628;SDS011;53532;53.084;6.352;2023-04-01T15:36:53;4.20;;;2.90;;
66628;SDS011;53532;53.084;6.352;2023-04-01T15:39:24;5.50;;;3.50;;
66628;SDS011;53532;53.084;6.352;2023-04-01T15:42:04;6.05;;;3.22;;
66628;SDS011;53532;53.084;6.352;2023-04-01T15:44:42;6.15;;;3.10;;
66628;SDS011;53532;53.084;6.352;2023-04-01T15:47:23;5.07;;;3.20;;
66628;SDS011;53532;53.084;6.352;2023-04-01T15:49:55;6.22;;;3.45;;
66628;SDS011;53532;53.084;6.352;2023-04-01T15:52:23;5.85;;;3.47;;
66628;SDS011;53532;53.084;6.352;2023-04-01T15:54:57;6.03;;;3.60;;
66628;SDS011;53532;53.084;6.352;2023-04-01T15:57:28;5.60;;;3.75;;
66628;SDS011;53532;53.084;6.352;2023-04-01T16:02:44;6.35;;;3.90;;
66628;SDS011;53532;53.084;6.352;2023-04-01T16:05:16;7.75;;;4.35;;
66628;SDS011;53532;53.084;6.352;2023-04-01T16:07:50;6.88;;;4.28;;
66628;SDS011;53532;53.084;6.352;2023-04-01T16:10:25;7.25;;;4.10;;
66628;SDS011;53532;53.084;6.352;2023-04-01T16:12:59;7.03;;;4.00;;
66628;SDS011;53532;53.084;6.352;2023-04-01T16:15:33;6.13;;;3.88;;
66628;SDS011;53532;53.084;6.352;2023-04-01T16:18:22;6.35;;;3.80;;